createdAt,value
2018-09-01T00:00:29.762Z,99.90
2018-09-01T00:02:58.175Z,99.90
2018-09-01T00:05:26.635Z,99.90
2018-09-01T00:07:55.067Z,99.90
2018-09-01T00:10:23.817Z,99.90
2018-09-01T00:12:52.270Z,99.90
2018-09-01T00:16:45.527Z,99.90
2018-09-01T00:19:13.926Z,99.90
2018-09-01T00:21:42.350Z,99.90
2018-09-01T00:24:11.750Z,99.90
2018-09-01T00:26:42.039Z,99.90
2018-09-01T00:29:10.526Z,99.90
2018-09-01T00:31:43.705Z,99.90
2018-09-01T00:34:23.181Z,99.90
2018-09-01T00:36:52.989Z,99.90
2018-09-01T00:39:21.399Z,99.90
2018-09-01T00:41:51.586Z,99.90
2018-09-01T00:44:24.466Z,99.90
2018-09-01T00:46:53.212Z,99.90
2018-09-01T00:49:22.107Z,99.90
2018-09-01T00:51:50.660Z,99.90
2018-09-01T00:54:19.151Z,99.90
2018-09-01T00:56:47.641Z,99.90
2018-09-01T00:59:17.396Z,99.90
2018-09-01T01:01:47.349Z,99.90
2018-09-01T01:04:15.962Z,99.90
2018-09-01T01:06:44.431Z,99.90
2018-09-01T01:09:12.906Z,99.90
2018-09-01T01:11:41.307Z,99.90
2018-09-01T01:14:09.723Z,99.90
2018-09-01T01:16:38.123Z,99.90
2018-09-01T01:19:06.552Z,99.90
2018-09-01T01:21:35.026Z,99.90
2018-09-01T01:24:03.452Z,99.90
2018-09-01T01:26:31.842Z,99.90
2018-09-01T01:29:00.349Z,99.90
2018-09-01T01:31:28.767Z,99.90
2018-09-01T01:33:57.305Z,99.90
2018-09-01T01:36:25.717Z,99.90
2018-09-01T01:38:54.198Z,99.90
2018-09-01T01:41:22.634Z,99.90
2018-09-01T01:43:51.047Z,99.90
2018-09-01T01:46:19.488Z,99.90
2018-09-01T01:48:47.911Z,99.90
2018-09-01T01:51:16.319Z,99.90
2018-09-01T01:53:44.800Z,99.90
2018-09-01T01:59:44.124Z,99.90
2018-09-01T02:02:12.515Z,99.90
2018-09-01T02:04:41.090Z,99.90
2018-09-01T02:07:09.491Z,99.90
2018-09-01T02:09:37.946Z,99.90
2018-09-01T02:12:06.409Z,99.90
2018-09-01T02:14:34.847Z,99.90
2018-09-01T02:17:04.251Z,99.90
2018-09-01T02:19:32.703Z,99.90
2018-09-01T02:22:01.171Z,99.90
2018-09-01T02:24:29.635Z,99.90
2018-09-01T02:26:58.028Z,99.90
2018-09-01T02:29:26.458Z,99.90
2018-09-01T02:31:54.918Z,99.90
2018-09-01T02:34:23.365Z,99.90
2018-09-01T02:36:51.918Z,99.90
2018-09-01T02:39:20.350Z,99.90
2018-09-01T02:41:48.825Z,99.90
2018-09-01T02:44:17.258Z,99.90
2018-09-01T02:46:45.727Z,99.90
2018-09-01T02:49:14.137Z,99.90
2018-09-01T02:51:42.519Z,99.90
2018-09-01T02:54:10.944Z,99.90
2018-09-01T02:56:39.374Z,99.90
2018-09-01T02:59:07.790Z,99.90
2018-09-01T03:01:37.783Z,99.90
2018-09-01T03:04:07.713Z,99.90
2018-09-01T03:06:49.635Z,99.90
2018-09-01T03:09:18.159Z,99.90
2018-09-01T03:11:47.406Z,99.90
2018-09-01T03:14:15.886Z,99.90
2018-09-01T03:16:44.336Z,99.90
2018-09-01T03:19:12.805Z,99.90
2018-09-01T03:21:41.430Z,99.90
2018-09-01T03:24:09.842Z,99.90
2018-09-01T03:26:38.236Z,99.90
2018-09-01T03:29:06.667Z,99.90
2018-09-01T03:31:35.267Z,99.90
2018-09-01T03:34:04.448Z,99.90
2018-09-01T03:36:33.335Z,99.90
2018-09-01T03:39:02.328Z,99.90
2018-09-01T03:41:30.938Z,99.90
2018-09-01T03:43:59.361Z,99.90
2018-09-01T03:46:27.755Z,99.90
2018-09-01T03:48:58.237Z,99.90
2018-09-01T03:51:26.911Z,99.90
2018-09-01T03:53:55.703Z,99.90
2018-09-01T03:56:24.275Z,99.90
2018-09-01T03:58:52.820Z,99.90
2018-09-01T04:01:21.202Z,99.90
2018-09-01T04:03:49.707Z,99.90
2018-09-01T04:06:18.150Z,99.90
2018-09-01T04:08:46.994Z,99.90
2018-09-01T04:11:15.410Z,99.90
2018-09-01T04:13:43.840Z,99.90
2018-09-01T04:16:12.238Z,99.90
2018-09-01T04:18:40.663Z,99.90
2018-09-01T04:21:09.099Z,99.90
2018-09-01T04:23:37.515Z,99.90
2018-09-01T04:26:05.960Z,99.90
2018-09-01T04:28:34.394Z,99.90
2018-09-01T04:31:02.858Z,99.90
2018-09-01T04:33:31.439Z,99.90
2018-09-01T04:35:59.839Z,99.90
2018-09-01T04:38:28.232Z,99.90
2018-09-01T04:40:56.711Z,99.90
2018-09-01T04:43:25.179Z,99.90
2018-09-01T04:45:53.591Z,99.90
2018-09-01T04:48:21.994Z,99.90
2018-09-01T04:50:50.398Z,99.90
2018-09-01T04:53:19.186Z,99.90
2018-09-01T04:55:47.626Z,99.90
2018-09-01T04:58:16.035Z,99.90
2018-09-01T05:00:44.444Z,99.90
2018-09-01T05:03:13.039Z,99.90
2018-09-01T05:05:41.472Z,99.90
2018-09-01T05:08:09.862Z,99.90
2018-09-01T05:10:38.352Z,99.90
2018-09-01T05:13:07.188Z,99.90
2018-09-01T05:15:35.738Z,99.90
2018-09-01T05:18:04.129Z,99.90
2018-09-01T05:20:32.654Z,99.90
2018-09-01T05:23:01.106Z,99.90
2018-09-01T05:25:29.574Z,99.90
2018-09-01T05:27:57.979Z,99.90
2018-09-01T05:30:26.459Z,99.90
2018-09-01T05:32:54.855Z,99.90
2018-09-01T05:35:23.614Z,99.90
2018-09-01T05:37:52.406Z,99.90
2018-09-01T05:40:20.882Z,99.90
2018-09-01T05:42:49.302Z,99.90
2018-09-01T05:45:17.744Z,99.90
2018-09-01T05:47:46.198Z,99.90
2018-09-01T05:50:14.620Z,99.90
2018-09-01T05:52:43.025Z,99.90
2018-09-01T05:55:11.473Z,99.90
2018-09-01T05:57:39.908Z,99.90
2018-09-01T06:00:08.994Z,99.90
2018-09-01T06:02:37.434Z,99.90
2018-09-01T06:05:07.070Z,99.90
2018-09-01T06:07:35.836Z,99.90
2018-09-01T06:10:04.302Z,99.90
2018-09-01T06:12:32.729Z,99.90
2018-09-01T06:15:01.247Z,99.90
2018-09-01T06:17:29.680Z,99.90
2018-09-01T06:19:58.925Z,99.90
2018-09-01T06:22:27.331Z,99.90
2018-09-01T06:24:55.805Z,99.90
2018-09-01T06:27:27.569Z,99.90
2018-09-01T06:29:56.078Z,99.90
2018-09-01T06:32:24.558Z,99.90
2018-09-01T06:34:53.011Z,99.90
2018-09-01T06:37:21.416Z,99.90
2018-09-01T06:39:50.262Z,99.90
2018-09-01T06:42:18.737Z,99.90
2018-09-01T06:44:47.267Z,99.90
2018-09-01T06:47:15.686Z,99.90
2018-09-01T06:49:44.141Z,99.90
2018-09-01T06:52:12.549Z,99.90
2018-09-01T06:54:40.946Z,99.90
2018-09-01T06:57:09.366Z,99.90
2018-09-01T06:59:37.742Z,99.90
2018-09-01T07:02:07.067Z,99.90
2018-09-01T07:04:35.503Z,99.90
2018-09-01T07:07:03.949Z,99.90
2018-09-01T07:09:32.442Z,99.90
2018-09-01T07:12:00.886Z,99.90
2018-09-01T07:14:29.343Z,99.90
2018-09-01T07:16:57.755Z,99.90
2018-09-01T07:19:26.150Z,99.90
2018-09-01T07:21:54.569Z,99.90
2018-09-01T07:24:23.040Z,99.90
2018-09-01T07:26:51.457Z,99.90
2018-09-01T07:29:19.862Z,99.90
2018-09-01T07:31:48.317Z,99.90
2018-09-01T07:34:16.710Z,99.90
2018-09-01T07:36:45.191Z,99.90
2018-09-01T07:39:13.670Z,99.90
2018-09-01T07:41:42.083Z,99.90
2018-09-01T07:44:10.494Z,99.90
2018-09-01T07:46:39.051Z,99.90
2018-09-01T07:49:07.738Z,99.90
2018-09-01T07:51:36.223Z,99.90
2018-09-01T07:54:05.057Z,99.90
2018-09-01T07:56:33.466Z,99.90
2018-09-01T07:59:02.341Z,99.90
2018-09-01T08:01:30.771Z,99.90
2018-09-01T08:03:59.212Z,99.90
2018-09-01T08:06:28.018Z,99.90
2018-09-01T08:08:56.463Z,99.90
2018-09-01T08:11:25.241Z,99.90
2018-09-01T08:13:53.697Z,99.90
2018-09-01T08:16:22.793Z,99.90
2018-09-01T08:18:51.586Z,99.90
2018-09-01T08:21:20.148Z,99.90
2018-09-01T08:23:49.398Z,99.90
2018-09-01T08:26:17.846Z,99.90
2018-09-01T08:28:46.284Z,99.90
2018-09-01T08:31:14.941Z,99.90
2018-09-01T08:33:43.523Z,99.90
2018-09-01T08:36:12.071Z,99.90
2018-09-01T08:38:40.778Z,99.90
2018-09-01T08:41:09.431Z,99.90
2018-09-01T08:43:44.530Z,99.90
2018-09-01T08:46:12.946Z,99.90
2018-09-01T08:48:42.467Z,99.90
2018-09-01T08:51:10.872Z,99.90
2018-09-01T08:53:39.310Z,99.90
2018-09-01T08:56:07.714Z,99.90
2018-09-01T08:58:36.123Z,99.90
2018-09-01T09:01:04.610Z,99.90
2018-09-01T09:03:33.123Z,99.90
2018-09-01T09:06:01.534Z,99.90
2018-09-01T09:08:29.994Z,99.90
2018-09-01T09:10:58.411Z,99.90
2018-09-01T09:13:26.837Z,99.90
2018-09-01T09:15:55.258Z,99.90
2018-09-01T09:18:23.731Z,99.90
2018-09-01T09:20:52.194Z,99.90
2018-09-01T09:23:20.826Z,99.90
2018-09-01T09:25:49.277Z,99.90
2018-09-01T09:28:18.235Z,99.90
2018-09-01T09:30:47.276Z,99.90
2018-09-01T09:33:15.740Z,99.90
2018-09-01T09:35:44.264Z,99.90
2018-09-01T09:38:12.683Z,99.90
2018-09-01T09:40:41.606Z,99.90
2018-09-01T09:43:10.023Z,99.90
2018-09-01T09:45:38.463Z,99.90
2018-09-01T09:48:07.191Z,99.90
2018-09-01T09:50:35.582Z,99.90
2018-09-01T09:53:04.081Z,99.90
2018-09-01T09:55:33.595Z,99.90
2018-09-01T09:58:02.414Z,99.90
2018-09-01T10:00:36.175Z,99.90
2018-09-01T10:03:05.223Z,99.90
2018-09-01T10:05:33.664Z,99.90
2018-09-01T10:08:05.317Z,99.90
2018-09-01T10:10:33.894Z,99.90
2018-09-01T10:13:02.354Z,99.90
2018-09-01T10:15:30.837Z,99.90
2018-09-01T10:17:59.338Z,99.90
2018-09-01T10:20:27.871Z,99.90
2018-09-01T10:22:56.479Z,99.90
2018-09-01T10:25:31.520Z,99.90
2018-09-01T10:28:15.729Z,99.90
2018-09-01T10:30:56.907Z,99.90
2018-09-01T10:33:35.821Z,99.90
2018-09-01T10:36:15.544Z,99.90
2018-09-01T10:38:53.353Z,99.90
2018-09-01T10:41:21.962Z,99.90
2018-09-01T10:43:50.528Z,99.90
2018-09-01T10:46:19.440Z,99.90
2018-09-01T10:48:47.963Z,99.90
2018-09-01T10:51:16.657Z,99.90
2018-09-01T10:53:45.142Z,99.90
2018-09-01T10:56:13.781Z,99.90
2018-09-01T10:58:42.202Z,99.90
2018-09-01T11:01:10.753Z,99.90
2018-09-01T11:03:39.168Z,99.90
2018-09-01T11:06:07.967Z,99.90
2018-09-01T11:08:36.414Z,99.90
2018-09-01T11:11:05.588Z,99.90
2018-09-01T11:13:34.174Z,99.90
2018-09-01T11:16:02.602Z,99.90
2018-09-01T11:18:31.039Z,99.90
2018-09-01T11:20:59.650Z,99.90
2018-09-01T11:23:28.254Z,99.90
2018-09-01T11:25:56.716Z,99.90
2018-09-01T11:28:25.136Z,99.90
2018-09-01T11:30:53.639Z,99.90
2018-09-01T11:33:22.983Z,99.90
2018-09-01T11:35:51.996Z,99.90
2018-09-01T11:38:20.783Z,99.90
2018-09-01T11:40:49.239Z,99.90
2018-09-01T11:43:17.776Z,99.90
2018-09-01T11:45:46.474Z,99.90
2018-09-01T11:48:14.866Z,99.90
2018-09-01T11:50:43.269Z,99.90
2018-09-01T11:53:17.251Z,99.90
2018-09-01T11:55:45.799Z,99.90
2018-09-01T11:58:14.256Z,99.90
2018-09-01T12:00:42.710Z,99.90
2018-09-01T12:03:11.154Z,99.90
2018-09-01T12:05:39.643Z,99.90
2018-09-01T12:08:08.095Z,99.90
2018-09-01T12:10:36.513Z,99.90
2018-09-01T12:13:05.034Z,99.90
2018-09-01T12:15:33.567Z,99.90
2018-09-01T12:18:02.008Z,99.90
2018-09-01T12:20:30.721Z,99.90
2018-09-01T12:22:59.210Z,99.90
2018-09-01T12:25:27.930Z,99.90
2018-09-01T12:27:56.348Z,99.90
2018-09-01T12:30:25.222Z,99.90
2018-09-01T12:32:53.718Z,99.90
2018-09-01T12:35:22.693Z,98.30
2018-09-01T12:37:51.342Z,99.70
2018-09-01T12:40:20.157Z,97.90
2018-09-01T12:42:48.886Z,97.70
2018-09-01T12:45:17.400Z,98.60
2018-09-01T12:47:46.386Z,97.80
2018-09-01T12:50:14.883Z,99.10
2018-09-01T12:52:43.339Z,98.40
2018-09-01T12:55:11.838Z,99.40
2018-09-01T12:57:40.351Z,98.70
2018-09-01T13:00:08.895Z,98.70
2018-09-01T13:02:37.415Z,98.50
2018-09-01T13:05:06.402Z,99.50
2018-09-01T13:07:35.303Z,99.10
2018-09-01T13:10:03.959Z,97.50
2018-09-01T13:12:32.418Z,96.30
2018-09-01T13:15:00.930Z,97.10
2018-09-01T13:17:29.449Z,97.00
2018-09-01T13:19:57.974Z,97.50
2018-09-01T13:22:26.427Z,98.00
2018-09-01T13:24:54.903Z,99.00
2018-09-01T13:27:23.358Z,99.10
2018-09-01T13:29:51.819Z,97.30
2018-09-01T13:32:20.702Z,98.30
2018-09-01T13:34:49.226Z,96.90
2018-09-01T13:37:17.721Z,95.70
2018-09-01T13:39:46.358Z,95.90
2018-09-01T13:42:16.545Z,95.40
2018-09-01T13:44:45.726Z,95.20
2018-09-01T13:47:14.747Z,96.50
2018-09-01T13:49:43.479Z,96.40
2018-09-01T13:52:13.187Z,97.20
2018-09-01T13:54:44.695Z,98.20
2018-09-01T13:57:13.627Z,98.50
2018-09-01T13:59:42.527Z,99.20
2018-09-01T14:02:11.045Z,99.50
2018-09-01T14:04:39.544Z,99.10
2018-09-01T14:07:08.264Z,99.20
2018-09-01T14:09:36.738Z,99.10
2018-09-01T14:12:05.610Z,98.70
2018-09-01T14:14:34.128Z,98.70
2018-09-01T14:17:03.186Z,99.20
2018-09-01T14:19:31.766Z,98.30
2018-09-01T14:22:00.691Z,98.00
2018-09-01T14:24:29.171Z,98.90
2018-09-01T14:26:58.030Z,99.40
2018-09-01T14:29:26.616Z,98.60
2018-09-01T14:31:55.223Z,99.70
2018-09-01T14:34:23.757Z,99.00
2018-09-01T14:36:52.795Z,98.80
2018-09-01T14:39:21.478Z,98.50
2018-09-01T14:41:51.091Z,98.50
2018-09-01T14:44:19.570Z,98.10
2018-09-01T14:46:48.177Z,98.50
2018-09-01T14:49:16.827Z,99.40
2018-09-01T14:51:45.930Z,98.80
2018-09-01T14:54:14.497Z,98.50
2018-09-01T14:56:44.038Z,97.90
2018-09-01T14:59:13.770Z,97.60
2018-09-01T15:01:42.498Z,97.20
2018-09-01T15:04:10.963Z,96.00
2018-09-01T15:06:41.579Z,95.40
2018-09-01T15:09:10.098Z,95.90
2018-09-01T15:11:38.868Z,95.50
2018-09-01T15:14:07.706Z,96.90
2018-09-01T15:16:36.199Z,95.20
2018-09-01T15:19:04.743Z,95.70
2018-09-01T15:21:33.210Z,95.60
2018-09-01T15:24:01.911Z,95.50
2018-09-01T15:26:30.386Z,96.00
2018-09-01T15:28:58.883Z,96.10
2018-09-01T15:32:29.954Z,96.00
2018-09-01T15:34:58.610Z,95.90
2018-09-01T15:37:29.683Z,96.20
2018-09-01T15:39:58.197Z,97.00
2018-09-01T15:42:26.708Z,96.60
2018-09-01T15:44:55.267Z,96.60
2018-09-01T15:47:23.925Z,96.90
2018-09-01T15:49:52.435Z,96.90
2018-09-01T15:52:20.927Z,96.50
2018-09-01T15:54:49.415Z,96.90
2018-09-01T15:57:17.957Z,97.30
2018-09-01T15:59:46.401Z,97.60
2018-09-01T16:02:14.879Z,98.40
2018-09-01T16:04:43.399Z,98.80
2018-09-01T16:07:11.866Z,99.10
2018-09-01T16:09:40.370Z,99.10
2018-09-01T16:12:08.854Z,99.90
2018-09-01T16:14:37.361Z,99.90
2018-09-01T16:17:06.135Z,99.90
2018-09-01T16:19:36.379Z,99.90
2018-09-01T16:22:05.269Z,99.90
2018-09-01T16:24:33.763Z,99.90
2018-09-01T16:27:02.229Z,99.90
2018-09-01T16:29:30.713Z,99.90
2018-09-01T16:31:59.206Z,99.90
2018-09-01T16:34:28.173Z,99.70
2018-09-01T16:36:56.767Z,99.90
2018-09-01T16:39:25.240Z,99.90
2018-09-01T16:41:53.710Z,99.90
2018-09-01T16:44:22.174Z,99.90
2018-09-01T16:46:50.646Z,99.90
2018-09-01T16:49:19.148Z,99.90
2018-09-01T16:51:47.647Z,99.90
2018-09-01T16:54:16.126Z,99.90
2018-09-01T16:56:44.608Z,99.90
2018-09-01T16:59:13.086Z,99.90
2018-09-01T17:01:41.571Z,99.90
2018-09-01T17:04:10.045Z,99.90
2018-09-01T17:06:38.548Z,99.90
2018-09-01T17:09:08.220Z,99.90
2018-09-01T17:11:36.890Z,99.90
2018-09-01T17:14:05.949Z,99.90
2018-09-01T17:16:34.386Z,99.90
2018-09-01T17:19:02.896Z,99.90
2018-09-01T17:21:31.419Z,99.90
2018-09-01T17:24:00.442Z,99.90
2018-09-01T17:26:34.754Z,99.90
2018-09-01T17:29:03.367Z,99.90
2018-09-01T17:31:33.611Z,99.90
2018-09-01T17:34:04.499Z,99.90
2018-09-01T17:36:34.626Z,99.90
2018-09-01T17:39:04.774Z,99.90
2018-09-01T17:41:39.095Z,99.90
2018-09-01T17:44:07.754Z,99.90
2018-09-01T17:46:39.120Z,99.90
2018-09-01T17:49:08.714Z,99.90
2018-09-01T17:51:38.059Z,99.90
2018-09-01T17:54:09.655Z,99.90
2018-09-01T17:56:39.450Z,99.90
2018-09-01T17:59:09.931Z,99.90
2018-09-01T18:01:43.604Z,99.90
2018-09-01T18:04:12.110Z,99.90
2018-09-01T18:06:40.719Z,99.90
2018-09-01T18:09:10.872Z,99.90
2018-09-01T18:11:43.827Z,99.90
2018-09-01T18:14:13.603Z,99.90
2018-09-01T18:16:45.414Z,99.90
2018-09-01T18:19:15.529Z,99.90
2018-09-01T18:21:46.447Z,99.90
2018-09-01T18:24:19.850Z,99.90
2018-09-01T18:26:51.303Z,99.90
2018-09-01T18:29:21.575Z,99.90
2018-09-01T18:31:50.182Z,99.90
2018-09-01T18:34:18.682Z,99.90
2018-09-01T18:36:47.167Z,99.90
2018-09-01T18:39:15.737Z,99.90
2018-09-01T18:41:44.383Z,99.90
2018-09-01T18:44:12.874Z,99.90
2018-09-01T18:46:41.357Z,99.90
2018-09-01T18:49:09.818Z,99.90
2018-09-01T18:51:38.274Z,99.90
2018-09-01T18:54:07.075Z,99.90
2018-09-01T18:56:35.737Z,99.90
2018-09-01T18:59:04.380Z,99.90
2018-09-01T19:01:32.844Z,99.90
2018-09-01T19:05:03.929Z,99.90
2018-09-01T19:07:32.378Z,99.90
2018-09-01T19:10:00.843Z,99.90
2018-09-01T19:12:29.295Z,99.90
2018-09-01T19:14:57.773Z,99.90
2018-09-01T19:17:26.222Z,99.90
2018-09-01T19:19:54.691Z,99.90
2018-09-01T19:22:23.141Z,99.90
2018-09-01T19:24:51.665Z,99.90
2018-09-01T19:27:20.166Z,99.90
2018-09-01T19:29:48.645Z,99.90
2018-09-01T19:32:17.085Z,99.90
2018-09-01T19:34:45.765Z,99.90
2018-09-01T19:37:14.546Z,99.90
2018-09-01T19:39:43.050Z,99.90
2018-09-01T19:42:11.511Z,99.90
2018-09-01T19:44:39.995Z,99.90
2018-09-01T19:47:08.643Z,99.90
2018-09-01T19:49:37.154Z,99.90
2018-09-01T19:52:05.629Z,99.90
2018-09-01T19:54:34.130Z,99.90
2018-09-01T19:57:02.621Z,99.90
2018-09-01T19:59:31.094Z,99.90
2018-09-01T20:01:59.560Z,99.90
2018-09-01T20:04:28.086Z,99.90
2018-09-01T20:06:56.741Z,99.90
2018-09-01T20:09:25.270Z,99.90
2018-09-01T20:11:53.996Z,99.90
2018-09-01T20:14:22.498Z,99.90
2018-09-01T20:16:52.270Z,99.90
2018-09-01T20:19:20.819Z,99.90
2018-09-01T20:21:49.698Z,99.90
2018-09-01T20:24:18.190Z,99.90
2018-09-01T20:26:47.042Z,99.90
2018-09-01T20:29:15.514Z,99.90
2018-09-01T20:31:44.049Z,99.90
2018-09-01T20:34:19.840Z,99.90
2018-09-01T20:36:48.463Z,99.90
2018-09-01T20:39:16.990Z,99.90
2018-09-01T20:41:45.675Z,99.90
2018-09-01T20:44:14.120Z,99.90
2018-09-01T20:46:42.591Z,99.90
2018-09-01T20:49:14.243Z,99.90
2018-09-01T20:51:42.726Z,99.90
2018-09-01T20:54:11.299Z,99.90
2018-09-01T20:56:39.905Z,99.90
2018-09-01T20:59:08.365Z,99.90
2018-09-01T21:01:36.881Z,99.90
2018-09-01T21:04:05.388Z,99.90
2018-09-01T21:06:34.283Z,99.90
2018-09-01T21:09:02.822Z,99.90
2018-09-01T21:11:31.355Z,99.90
2018-09-01T21:13:59.846Z,99.90
2018-09-01T21:16:28.391Z,99.90
2018-09-01T21:18:57.030Z,99.90
2018-09-01T21:21:25.536Z,99.90
2018-09-01T21:23:53.994Z,99.90
2018-09-01T21:26:22.552Z,99.90
2018-09-01T21:28:51.218Z,99.90
2018-09-01T21:31:19.705Z,99.90
2018-09-01T21:33:48.175Z,99.90
2018-09-01T21:36:16.706Z,99.90
2018-09-01T21:38:45.190Z,99.90
2018-09-01T21:41:13.678Z,99.90
2018-09-01T21:43:43.165Z,99.90
2018-09-01T21:46:11.713Z,99.90
2018-09-01T21:48:40.184Z,99.90
2018-09-01T21:51:08.650Z,99.90
2018-09-01T21:53:37.115Z,99.90
2018-09-01T21:56:06.146Z,99.90
2018-09-01T21:58:34.619Z,99.90
2018-09-01T22:01:08.330Z,99.90
2018-09-01T22:03:41.035Z,99.90
2018-09-01T22:06:09.548Z,99.90
2018-09-01T22:08:38.228Z,99.90
2018-09-01T22:11:06.722Z,99.90
2018-09-01T22:13:35.178Z,99.90
2018-09-01T22:16:03.722Z,99.90
2018-09-01T22:18:32.234Z,99.90
2018-09-01T22:21:00.718Z,99.90
2018-09-01T22:23:29.205Z,99.90
2018-09-01T22:25:57.719Z,99.90
2018-09-01T22:28:26.162Z,99.90
2018-09-01T22:30:54.606Z,99.90
2018-09-01T22:33:23.082Z,99.90
2018-09-01T22:35:51.574Z,99.90
2018-09-01T22:38:20.563Z,99.90
2018-09-01T22:40:49.021Z,99.90
2018-09-01T22:43:17.489Z,99.90
2018-09-01T22:45:45.926Z,99.90
2018-09-01T22:48:14.453Z,99.90
2018-09-01T22:50:42.985Z,99.90
2018-09-01T22:53:11.471Z,99.90
2018-09-01T22:55:39.992Z,99.90
2018-09-01T22:58:08.506Z,99.90
2018-09-01T23:00:36.967Z,99.90
2018-09-01T23:03:05.608Z,99.90
2018-09-01T23:05:34.235Z,99.90
2018-09-01T23:08:02.741Z,99.90
2018-09-01T23:10:31.256Z,99.90
2018-09-01T23:12:59.790Z,99.90
2018-09-01T23:15:28.249Z,99.90
2018-09-01T23:17:56.670Z,99.90
2018-09-01T23:20:25.066Z,99.90
2018-09-01T23:22:53.480Z,99.90
2018-09-01T23:25:21.898Z,99.90
2018-09-01T23:27:50.306Z,99.90
2018-09-01T23:30:18.882Z,99.90
2018-09-01T23:32:47.294Z,99.90
2018-09-01T23:35:15.703Z,99.90
2018-09-01T23:37:44.152Z,99.90
2018-09-01T23:40:12.564Z,99.90
2018-09-01T23:42:41.014Z,99.90
2018-09-01T23:45:09.757Z,99.90
2018-09-01T23:47:38.189Z,99.90
2018-09-01T23:50:07.605Z,99.90
2018-09-01T23:52:36.022Z,99.90
2018-09-01T23:55:04.858Z,99.90
2018-09-01T23:57:33.280Z,99.90
